Time;durP1;ratioP1;P1;durP2;ratioP2;P2;SDS_P1;SDS_P2;PMS_P1;PMS_P2;Temp;Humidity;BMP_temperature;BMP_pressure;BME280_temperature;BME280_humidity;BME280_pressure;Samples;Min_cycle;Max_cycle;Signal;HPM_P1;HPM_P2
2023/01/03 00:00:18;;;;;;;70.27;32.20;;;5.40;99.90;;;;;;5110227;28;20219;-68
2023/01/03 00:02:45;;;;;;;64.33;29.87;;;5.40;99.90;;;;;;5109500;28;20252;-69
2023/01/03 00:05:12;;;;;;;82.00;33.30;;;5.40;99.90;;;;;;5107528;28;20294;-69
2023/01/03 00:07:38;;;;;;;78.63;33.97;;;5.30;99.90;;;;;;5107285;28;20219;-69
2023/01/03 00:10:08;;;;;;;70.30;30.30;;;5.30;99.90;;;;;;5110298;28;20241;-70
2023/01/03 00:12:35;;;;;;;78.57;33.83;;;5.20;99.90;;;;;;5109824;28;20683;-69
2023/01/03 00:15:03;;;;;;;66.37;32.40;;;5.20;99.90;;;;;;5104182;28;20269;-69
2023/01/03 00:17:29;;;;;;;77.77;33.77;;;5.20;99.90;;;;;;5100532;28;20196;-70
2023/01/03 00:19:56;;;;;;;79.50;32.57;;;5.20;99.90;;;;;;5108744;28;20294;-70
2023/01/03 00:22:23;;;;;;;82.57;34.80;;;5.10;99.90;;;;;;5109513;28;20310;-70
2023/01/03 00:24:51;;;;;;;84.70;34.50;;;5.10;99.90;;;;;;5107549;28;20203;-69
2023/01/03 00:27:18;;;;;;;78.80;34.57;;;5.10;99.90;;;;;;5112589;28;20196;-70
2023/01/03 00:29:45;;;;;;;88.53;36.17;;;5.10;99.90;;;;;;5095675;28;20290;-69
2023/01/03 00:32:12;;;;;;;87.77;35.90;;;5.10;99.90;;;;;;5112781;28;20589;-69
2023/01/03 00:34:41;;;;;;;75.37;34.43;;;5.00;99.90;;;;;;5112436;28;20284;-69
2023/01/03 00:37:08;;;;;;;81.43;34.53;;;5.00;99.90;;;;;;5107915;28;20216;-69
2023/01/03 00:39:35;;;;;;;74.73;33.97;;;5.10;99.90;;;;;;5113903;28;20652;-70
2023/01/03 00:42:01;;;;;;;79.93;34.47;;;5.00;99.90;;;;;;5113720;28;20295;-70
2023/01/03 00:44:28;;;;;;;76.67;35.27;;;5.00;99.90;;;;;;5113768;28;20219;-70
2023/01/03 00:46:55;;;;;;;70.10;32.20;;;5.00;99.90;;;;;;5110647;28;20538;-70
2023/01/03 00:49:22;;;;;;;81.13;34.57;;;5.00;99.90;;;;;;5113794;28;20298;-70
2023/01/03 00:51:49;;;;;;;83.03;35.27;;;4.90;99.90;;;;;;5113532;28;20223;-70
2023/01/03 00:54:16;;;;;;;83.00;35.80;;;4.90;99.90;;;;;;5114013;28;20264;-69
2023/01/03 00:56:44;;;;;;;76.30;33.93;;;4.90;99.90;;;;;;5109684;28;20278;-69
2023/01/03 00:59:13;;;;;;;75.27;33.97;;;4.90;99.90;;;;;;5113596;28;20286;-70
2023/01/03 01:01:46;;;;;;;80.57;36.00;;;4.90;99.90;;;;;;5113402;28;20655;-69
2023/01/03 01:04:18;;;;;;;78.97;34.20;;;4.90;99.90;;;;;;5095652;28;20862;-69
2023/01/03 01:06:48;;;;;;;77.07;33.17;;;4.90;99.90;;;;;;5112623;28;20577;-69
2023/01/03 01:09:20;;;;;;;80.60;33.97;;;4.80;99.90;;;;;;5094810;28;20199;-70
2023/01/03 01:11:47;;;;;;;90.50;36.20;;;4.80;99.90;;;;;;5094893;28;20225;-70
2023/01/03 01:14:20;;;;;;;83.33;37.43;;;4.80;99.90;;;;;;5113583;28;20242;-70
2023/01/03 01:17:03;;;;;;;85.77;35.97;;;4.80;99.90;;;;;;5112473;28;20619;-69
2023/01/03 01:19:36;;;;;;;86.17;36.97;;;4.80;99.90;;;;;;5087640;28;20264;-69
2023/01/03 01:22:03;;;;;;;88.90;37.83;;;4.80;99.90;;;;;;5113066;28;20683;-69
2023/01/03 01:24:30;;;;;;;86.87;38.57;;;4.80;99.90;;;;;;5112822;28;20209;-69
2023/01/03 01:26:57;;;;;;;91.40;37.83;;;4.80;99.90;;;;;;5112622;28;20298;-69
2023/01/03 01:29:24;;;;;;;90.20;37.93;;;4.80;99.90;;;;;;5113234;28;20244;-69
2023/01/03 01:31:51;;;;;;;84.73;36.60;;;4.80;99.90;;;;;;5112154;28;20223;-69
2023/01/03 01:34:18;;;;;;;83.73;36.10;;;4.90;99.90;;;;;;5107955;28;20203;-70
2023/01/03 01:36:46;;;;;;;86.60;36.00;;;4.90;99.90;;;;;;5113159;28;20225;-70
2023/01/03 01:39:21;;;;;;;91.93;37.07;;;5.00;99.90;;;;;;5107921;28;20286;-70
2023/01/03 01:44:52;;;;;;;86.27;35.40;;;5.10;99.90;;;;;;5111155;28;20203;-70
2023/01/03 01:47:33;;;;;;;79.23;34.63;;;5.20;99.90;;;;;;5109833;28;20252;-70
2023/01/03 01:50:22;;;;;;;82.60;35.60;;;5.20;99.90;;;;;;5109089;28;20672;-70
2023/01/03 01:52:58;;;;;;;82.13;35.27;;;5.20;99.90;;;;;;5105230;28;20224;-70
2023/01/03 01:55:33;;;;;;;78.33;32.60;;;5.20;99.90;;;;;;5112457;28;20713;-70
2023/01/03 01:58:00;;;;;;;79.63;34.03;;;5.20;99.90;;;;;;5110952;28;20245;-70
2023/01/03 02:00:28;;;;;;;74.13;33.67;;;5.20;99.90;;;;;;5112476;28;20210;-70
2023/01/03 02:02:55;;;;;;;69.40;31.63;;;5.20;99.90;;;;;;5109323;28;20244;-70
2023/01/03 02:05:23;;;;;;;68.17;31.70;;;5.20;99.90;;;;;;5108777;28;20570;-70
2023/01/03 02:07:51;;;;;;;63.63;30.03;;;5.20;99.90;;;;;;5111825;28;20218;-70
2023/01/03 02:10:24;;;;;;;72.07;31.67;;;5.20;99.90;;;;;;5112362;28;20732;-70
2023/01/03 02:13:16;;;;;;;74.30;32.00;;;5.10;99.90;;;;;;5110674;28;20263;-70
2023/01/03 02:16:19;;;;;;;73.17;32.37;;;5.10;99.90;;;;;;5110322;28;20247;-70
2023/01/03 02:18:52;;;;;;;65.47;29.50;;;5.10;99.90;;;;;;5110940;28;20606;-69
2023/01/03 02:21:55;;;;;;;70.47;30.70;;;5.00;99.90;;;;;;5111705;28;20266;-69
2023/01/03 02:24:41;;;;;;;72.40;33.00;;;4.90;99.90;;;;;;5110811;28;20726;-69
2023/01/03 02:27:32;;;;;;;65.73;31.20;;;4.90;99.90;;;;;;5108955;28;20219;-70
2023/01/03 02:30:26;;;;;;;65.23;29.70;;;4.80;99.90;;;;;;5111950;28;20222;-69
2023/01/03 02:33:30;;;;;;;66.40;31.10;;;4.80;99.90;;;;;;5107232;28;20276;-69
2023/01/03 02:36:01;;;;;;;71.30;30.80;;;4.80;99.90;;;;;;5108321;28;20261;-69
2023/01/03 02:38:49;;;;;;;63.50;29.47;;;4.70;99.90;;;;;;5108043;28;20215;-70
2023/01/03 02:41:40;;;;;;;68.53;28.70;;;4.70;99.90;;;;;;5110510;28;20570;-70
2023/01/03 02:44:17;;;;;;;66.73;29.47;;;4.60;99.90;;;;;;5110060;28;20287;-69
2023/01/03 02:47:05;;;;;;;69.83;28.50;;;4.60;99.90;;;;;;5093740;28;20237;-69
2023/01/03 02:49:44;;;;;;;72.10;30.93;;;4.50;99.90;;;;;;5106957;28;20627;-69
2023/01/03 02:52:20;;;;;;;70.83;30.87;;;4.50;99.90;;;;;;5111452;28;20314;-69
2023/01/03 02:54:58;;;;;;;75.27;32.40;;;4.40;99.90;;;;;;5110750;28;20195;-70
2023/01/03 02:57:34;;;;;;;77.23;31.50;;;4.40;99.90;;;;;;5108658;28;20210;-70
2023/01/03 03:00:23;;;;;;;79.67;34.17;;;4.40;99.90;;;;;;5109766;28;20290;-70
2023/01/03 03:02:57;;;;;;;93.00;35.60;;;4.30;99.90;;;;;;5110486;28;20282;-70
2023/01/03 03:05:32;;;;;;;92.40;37.07;;;4.30;99.90;;;;;;5111142;28;20587;-70
2023/01/03 03:07:59;;;;;;;91.60;36.07;;;4.20;99.90;;;;;;5091104;28;20211;-70
2023/01/03 03:13:32;;;;;;;88.43;33.83;;;4.20;99.90;;;;;;5108810;28;20317;-69
2023/01/03 03:16:10;;;;;;;80.83;33.20;;;4.20;99.90;;;;;;5109828;28;20237;-70
2023/01/03 03:18:58;;;;;;;88.43;34.60;;;4.20;99.90;;;;;;5110743;28;20218;-70
2023/01/03 03:30:09;;;;;;;89.47;34.33;;;4.00;99.90;;;;;;5110509;28;20306;-69
2023/01/03 03:32:38;;;;;;;83.30;32.30;;;4.00;99.90;;;;;;5107831;28;20215;-69
2023/01/03 03:35:09;;;;;;;88.77;34.07;;;4.00;99.90;;;;;;5088295;28;20290;-69
2023/01/03 03:37:38;;;;;;;93.40;35.27;;;4.10;99.90;;;;;;5107943;28;20270;-69
2023/01/03 03:45:57;;;;;;;161.03;44.40;;;3.90;99.90;;;;;;5109146;28;20702;-69
2023/01/03 03:51:35;;;;;;;375.00;52.97;;;3.90;99.90;;;;;;5107298;28;20644;-70
2023/01/03 03:54:10;;;;;;;419.93;56.43;;;4.00;99.90;;;;;;5104744;28;20396;-69
2023/01/03 03:56:39;;;;;;;488.57;62.97;;;4.10;99.90;;;;;;5108284;28;20249;-70
2023/01/03 03:59:09;;;;;;;371.27;53.87;;;4.20;99.90;;;;;;5109256;28;20294;-69
2023/01/03 04:01:38;;;;;;;439.00;58.03;;;4.20;99.90;;;;;;5110721;28;20242;-70
2023/01/03 04:04:11;;;;;;;414.60;56.33;;;4.30;99.90;;;;;;5112646;28;20211;-70
2023/01/03 04:06:47;;;;;;;517.37;66.40;;;4.40;99.90;;;;;;5093997;28;20625;-70
2023/01/03 04:09:14;;;;;;;517.03;65.93;;;4.50;99.90;;;;;;5098286;28;20605;-70
2023/01/03 04:11:41;;;;;;;494.83;65.97;;;4.50;99.90;;;;;;5116730;28;20302;-69
2023/01/03 04:14:08;;;;;;;404.37;56.97;;;4.60;99.90;;;;;;5117185;28;20630;-70
2023/01/03 04:16:36;;;;;;;424.43;58.20;;;4.70;99.90;;;;;;5116225;28;20203;-70
2023/01/03 04:19:03;;;;;;;428.33;59.50;;;4.80;99.90;;;;;;5116687;28;20968;-70
2023/01/03 04:21:30;;;;;;;349.40;52.53;;;4.80;99.90;;;;;;5116616;28;20226;-70
2023/01/03 04:23:57;;;;;;;377.27;52.57;;;4.90;99.90;;;;;;5116458;28;20219;-70
2023/01/03 04:26:24;;;;;;;301.33;46.33;;;4.90;99.90;;;;;;5115862;28;20746;-70
2023/01/03 04:28:50;;;;;;;402.40;53.10;;;5.00;99.90;;;;;;5116665;28;20237;-70
2023/01/03 04:31:17;;;;;;;361.50;50.13;;;5.00;99.90;;;;;;5117158;28;20195;-69
2023/01/03 04:33:44;;;;;;;394.00;53.10;;;5.00;99.90;;;;;;5116044;28;20601;-70
2023/01/03 04:36:11;;;;;;;401.50;51.37;;;5.00;99.90;;;;;;5098306;28;20199;-70
2023/01/03 04:38:37;;;;;;;399.97;54.73;;;5.10;99.90;;;;;;5116143;28;20215;-69
2023/01/03 04:41:06;;;;;;;365.33;49.60;;;5.10;99.90;;;;;;5112286;28;20294;-70
2023/01/03 04:46:18;;;;;;;283.20;46.03;;;5.20;99.90;;;;;;5113941;28;20234;-70
2023/01/03 04:48:45;;;;;;;325.97;49.10;;;5.20;99.90;;;;;;5116802;28;20261;-70
2023/01/03 04:51:12;;;;;;;280.57;47.17;;;5.30;99.90;;;;;;5116455;28;20203;-70
2023/01/03 04:53:39;;;;;;;281.23;46.70;;;5.30;99.90;;;;;;5116714;28;20317;-69
2023/01/03 04:56:06;;;;;;;228.23;44.97;;;5.30;99.90;;;;;;5090987;28;20282;-69
2023/01/03 04:58:33;;;;;;;235.67;44.60;;;5.30;99.90;;;;;;5116147;28;20287;-70
2023/01/03 05:01:02;;;;;;;231.80;45.03;;;5.40;99.90;;;;;;5116228;28;20622;-69
2023/01/03 05:03:29;;;;;;;195.63;42.27;;;5.40;99.90;;;;;;5116076;28;20288;-70
2023/01/03 05:06:01;;;;;;;173.77;41.27;;;5.50;99.90;;;;;;5116799;28;20730;-69
2023/01/03 05:08:28;;;;;;;204.57;45.07;;;5.50;99.90;;;;;;5116192;28;20214;-70
2023/01/03 05:10:54;;;;;;;186.53;42.13;;;5.50;99.90;;;;;;5091881;28;20320;-70
2023/01/03 05:13:22;;;;;;;173.47;40.70;;;5.60;99.90;;;;;;5112919;28;20787;-70
2023/01/03 05:15:48;;;;;;;154.47;42.23;;;5.50;99.90;;;;;;5113274;28;20234;-69
2023/01/03 05:18:15;;;;;;;161.70;41.13;;;5.60;99.90;;;;;;5113190;28;20297;-69
2023/01/03 05:26:17;;;;;;;144.53;39.03;;;5.70;99.90;;;;;;5113439;28;20199;-69
2023/01/03 05:28:46;;;;;;;139.13;40.97;;;5.80;99.90;;;;;;5112374;28;20242;-69
2023/01/03 05:31:13;;;;;;;155.47;42.20;;;5.80;99.90;;;;;;5094695;28;20585;-71
2023/01/03 05:33:40;;;;;;;146.47;41.97;;;5.70;99.90;;;;;;5094265;28;20273;-68
2023/01/03 05:36:08;;;;;;;153.40;43.53;;;5.80;99.90;;;;;;5113227;28;20228;-68
2023/01/03 05:38:36;;;;;;;140.63;42.77;;;5.70;99.90;;;;;;5112976;28;20233;-68
2023/01/03 05:41:03;;;;;;;149.80;45.70;;;5.70;99.90;;;;;;5111761;28;20296;-69
2023/01/03 05:43:30;;;;;;;141.40;44.03;;;5.80;99.90;;;;;;5111422;28;20315;-69
2023/01/03 05:45:57;;;;;;;143.27;48.87;;;5.80;99.90;;;;;;5109554;28;20228;-70
2023/01/03 05:48:24;;;;;;;138.77;46.53;;;5.80;99.90;;;;;;5112506;28;20219;-70
2023/01/03 05:50:51;;;;;;;139.90;50.13;;;5.80;99.90;;;;;;5109948;28;20208;-69
2023/01/03 05:53:18;;;;;;;144.47;47.70;;;5.80;99.90;;;;;;5110202;28;20220;-69
2023/01/03 05:55:44;;;;;;;145.97;49.43;;;5.80;99.90;;;;;;5110938;28;20235;-70
2023/01/03 05:58:11;;;;;;;149.03;51.73;;;5.80;99.90;;;;;;5092700;28;20739;-68
2023/01/03 06:00:38;;;;;;;147.97;50.20;;;5.80;99.90;;;;;;5084358;28;20541;-69
2023/01/03 06:03:06;;;;;;;156.77;52.77;;;5.80;99.90;;;;;;5110098;28;20260;-69
2023/01/03 06:05:33;;;;;;;151.80;55.13;;;5.90;99.90;;;;;;5090249;28;20694;-70
2023/01/03 06:08:01;;;;;;;145.20;52.80;;;5.80;99.90;;;;;;5111519;28;20307;-70
2023/01/03 06:10:28;;;;;;;153.83;52.63;;;5.80;99.90;;;;;;5111344;28;20207;-69
2023/01/03 06:12:55;;;;;;;140.67;49.13;;;5.80;99.90;;;;;;5109910;28;20599;-69
2023/01/03 06:15:22;;;;;;;147.17;51.77;;;5.80;99.90;;;;;;5111759;28;20224;-70
2023/01/03 06:17:57;;;;;;;127.77;49.53;;;5.70;99.90;;;;;;5107343;28;20199;-70
2023/01/03 06:20:25;;;;;;;123.70;48.60;;;5.70;99.90;;;;;;5107121;28;20222;-69
2023/01/03 06:22:53;;;;;;;134.33;48.40;;;5.60;99.90;;;;;;5112397;28;20215;-70
2023/01/03 06:25:21;;;;;;;135.23;49.57;;;5.50;99.90;;;;;;5112240;28;20230;-69
2023/01/03 06:27:48;;;;;;;136.30;49.23;;;5.50;99.90;;;;;;5108221;28;20702;-69
2023/01/03 06:30:15;;;;;;;140.17;47.37;;;5.50;99.90;;;;;;5110254;28;20318;-69
2023/01/03 06:32:43;;;;;;;139.57;51.70;;;5.40;99.90;;;;;;5090456;28;20269;-69
2023/01/03 06:35:10;;;;;;;141.80;49.23;;;5.40;99.90;;;;;;5104609;28;20224;-69
2023/01/03 06:37:37;;;;;;;138.03;51.27;;;5.40;99.90;;;;;;5105997;28;20297;-69
2023/01/03 06:40:04;;;;;;;137.50;49.33;;;5.30;99.90;;;;;;5107148;28;20299;-69
2023/01/03 06:42:38;;;;;;;142.87;48.67;;;5.20;99.90;;;;;;5110847;28;20247;-70
2023/01/03 06:53:42;;;;;;;144.27;50.60;;;5.10;99.90;;;;;;5092472;28;20667;-71
2023/01/03 06:56:10;;;;;;;152.77;52.07;;;5.00;99.90;;;;;;5111434;28;20643;-70
2023/01/03 06:58:37;;;;;;;138.13;49.00;;;5.00;99.90;;;;;;5111404;28;20235;-70
2023/01/03 07:01:05;;;;;;;135.33;48.53;;;5.00;99.90;;;;;;5106106;28;20298;-70
2023/01/03 07:03:32;;;;;;;152.47;50.47;;;5.00;99.90;;;;;;5110635;28;20203;-70
2023/01/03 07:05:59;;;;;;;140.53;49.47;;;4.90;99.90;;;;;;5107305;28;20290;-70
2023/01/03 07:08:25;;;;;;;151.57;50.03;;;4.90;99.90;;;;;;5089734;28;20215;-70
2023/01/03 07:10:54;;;;;;;145.50;50.27;;;4.80;99.90;;;;;;5110984;28;20663;-70
2023/01/03 07:16:38;;;;;;;150.20;49.70;;;4.80;99.90;;;;;;5047768;28;20631;-70
2023/01/03 07:19:06;;;;;;;142.17;47.47;;;4.80;99.90;;;;;;5046865;28;20315;-70
2023/01/03 07:21:34;;;;;;;141.43;48.43;;;4.80;99.90;;;;;;5077466;28;20199;-70
2023/01/03 07:24:03;;;;;;;135.63;48.47;;;4.80;99.90;;;;;;5105263;28;20215;-70
2023/01/03 07:26:32;;;;;;;151.83;49.27;;;4.70;99.90;;;;;;5108688;28;20298;-70
2023/01/03 07:29:00;;;;;;;135.73;48.20;;;4.70;99.90;;;;;;5099072;28;20430;-71
2023/01/03 07:31:38;;;;;;;130.47;47.63;;;4.70;99.90;;;;;;5092123;28;20714;-69
2023/01/03 07:34:05;;;;;;;135.83;48.13;;;4.70;99.90;;;;;;5102276;28;20294;-69
2023/01/03 07:36:32;;;;;;;139.27;47.17;;;4.60;99.90;;;;;;5098700;28;21520;-70
2023/01/03 07:39:01;;;;;;;131.90;47.07;;;4.60;99.90;;;;;;5105819;28;20222;-69
2023/01/03 07:43:35;;;;;;;156.73;50.27;;;4.50;99.90;;;;;;5105215;28;20278;-68
2023/01/03 07:44:14;;;;;;;160.63;49.20;;;4.50;99.90;;;;;;5101061;28;20711;-69
2023/01/03 07:46:41;;;;;;;164.43;52.07;;;4.50;99.90;;;;;;5102836;28;20302;-70
2023/01/03 07:49:10;;;;;;;169.77;54.23;;;4.50;99.90;;;;;;5098305;28;20298;-69
2023/01/03 07:51:38;;;;;;;154.83;52.30;;;4.50;99.90;;;;;;5107223;28;20219;-68
2023/01/03 07:54:06;;;;;;;174.60;54.17;;;4.60;99.90;;;;;;5105792;28;20575;-69
2023/01/03 07:56:33;;;;;;;185.83;54.23;;;4.60;99.90;;;;;;5102647;28;20196;-68
2023/01/03 07:59:00;;;;;;;181.13;51.93;;;4.70;99.90;;;;;;5102776;28;20193;-68
2023/01/03 08:01:29;;;;;;;172.17;50.13;;;4.70;99.90;;;;;;5102154;28;20234;-68
2023/01/03 08:03:56;;;;;;;179.57;50.77;;;4.70;99.90;;;;;;5108535;28;20214;-69
2023/01/03 08:06:23;;;;;;;247.40;53.37;;;4.80;99.90;;;;;;5108697;28;20235;-69
2023/01/03 08:14:23;;;;;;;181.33;45.33;;;4.70;99.90;;;;;;5107187;28;20226;-68
2023/01/03 08:16:53;;;;;;;194.43;45.53;;;4.80;99.90;;;;;;5085041;28;20203;-68
2023/01/03 08:19:19;;;;;;;213.40;47.07;;;4.80;99.90;;;;;;5108834;28;20232;-68
2023/01/03 08:21:46;;;;;;;240.37;49.40;;;4.80;99.90;;;;;;5101936;28;20188;-69
2023/01/03 08:24:13;;;;;;;212.90;48.00;;;4.80;99.90;;;;;;5104629;28;20226;-69
2023/01/03 08:26:40;;;;;;;161.63;44.00;;;4.90;99.90;;;;;;5102746;28;20273;-68
2023/01/03 08:29:07;;;;;;;173.37;45.83;;;4.90;99.90;;;;;;5105062;28;20206;-69
2023/01/03 08:31:39;;;;;;;146.50;43.53;;;5.00;99.90;;;;;;5085257;28;20240;-69
2023/01/03 08:34:09;;;;;;;161.40;44.77;;;5.00;99.90;;;;;;5106845;28;20399;-68
2023/01/03 08:36:50;;;;;;;159.00;44.03;;;5.00;99.90;;;;;;5098801;28;20662;-69
2023/01/03 08:39:21;;;;;;;179.47;50.27;;;5.10;99.90;;;;;;5104941;28;20191;-69
2023/01/03 08:41:56;;;;;;;156.47;44.77;;;5.10;99.90;;;;;;5100894;28;20499;-69
2023/01/03 08:44:24;;;;;;;141.20;45.07;;;5.20;99.90;;;;;;5106372;28;20318;-69
2023/01/03 08:46:53;;;;;;;130.70;42.33;;;5.20;99.90;;;;;;5106309;28;20292;-69
2023/01/03 08:49:21;;;;;;;129.47;41.27;;;5.20;99.90;;;;;;5106847;28;20494;-69
2023/01/03 08:51:47;;;;;;;122.03;41.90;;;5.20;99.90;;;;;;5108312;28;20298;-69
2023/01/03 08:54:14;;;;;;;132.90;43.67;;;5.30;99.90;;;;;;5110789;28;20273;-69
2023/01/03 08:56:41;;;;;;;122.23;40.57;;;5.30;99.90;;;;;;5111793;28;20240;-69
2023/01/03 08:59:08;;;;;;;120.10;41.67;;;5.40;99.90;;;;;;5106670;28;20283;-69
2023/01/03 09:01:34;;;;;;;106.03;39.30;;;5.40;99.90;;;;;;5105905;28;20246;-70
2023/01/03 09:04:03;;;;;;;112.27;41.03;;;5.40;99.90;;;;;;5109564;28;20204;-69
2023/01/03 09:06:30;;;;;;;116.73;40.77;;;5.40;99.90;;;;;;5106528;28;20210;-71
2023/01/03 09:08:57;;;;;;;112.67;39.63;;;5.40;99.90;;;;;;5091612;28;20238;-71
2023/01/03 09:11:24;;;;;;;108.90;39.10;;;5.50;99.90;;;;;;5111343;28;20227;-68
2023/01/03 09:13:53;;;;;;;111.37;40.90;;;5.50;99.90;;;;;;5106770;28;20597;-70
2023/01/03 09:16:20;;;;;;;111.30;40.97;;;5.50;99.90;;;;;;5107899;28;20699;-70
2023/01/03 09:18:47;;;;;;;120.70;41.70;;;5.60;99.90;;;;;;5110335;28;20353;-70
2023/01/03 09:21:13;;;;;;;111.67;40.73;;;5.60;99.90;;;;;;5107652;28;20296;-69
2023/01/03 09:23:40;;;;;;;114.27;41.63;;;5.60;99.90;;;;;;5107592;28;20678;-69
2023/01/03 09:26:07;;;;;;;120.07;40.90;;;5.70;99.90;;;;;;5110299;28;20411;-69
2023/01/03 09:28:34;;;;;;;106.20;39.60;;;5.70;99.90;;;;;;5108364;28;20641;-69
2023/01/03 09:31:01;;;;;;;104.70;37.97;;;5.70;99.90;;;;;;5099545;28;20290;-70
2023/01/03 09:33:28;;;;;;;96.73;38.90;;;5.70;99.90;;;;;;5106553;28;20202;-68
2023/01/03 09:35:54;;;;;;;97.97;37.03;;;5.80;99.90;;;;;;5110778;28;20326;-69
2023/01/03 09:38:22;;;;;;;92.87;40.13;;;5.80;99.90;;;;;;5106171;28;20245;-69
2023/01/03 09:40:59;;;;;;;95.17;37.27;;;5.80;99.90;;;;;;5109132;28;20199;-69
2023/01/03 09:43:35;;;;;;;95.13;35.30;;;5.90;99.90;;;;;;5110060;28;20264;-69
2023/01/03 09:46:04;;;;;;;96.10;35.87;;;5.90;99.90;;;;;;5102853;28;20203;-69
2023/01/03 09:48:34;;;;;;;88.93;35.77;;;6.00;99.90;;;;;;5103957;28;20197;-70
2023/01/03 09:51:01;;;;;;;83.03;35.17;;;6.00;99.90;;;;;;5106344;28;20207;-70
2023/01/03 10:05:30;;;;;;;75.97;31.63;;;6.20;99.90;;;;;;5108011;28;20259;-69
2023/01/03 10:08:35;;;;;;;71.67;28.17;;;6.40;99.90;;;;;;5106771;28;20311;-69
2023/01/03 10:11:07;;;;;;;70.37;27.50;;;6.40;99.90;;;;;;5104100;28;20193;-69
2023/01/03 10:13:55;;;;;;;65.73;26.63;;;6.50;99.90;;;;;;5108615;28;20283;-69
2023/01/03 10:16:22;;;;;;;72.17;27.13;;;6.50;99.90;;;;;;5108546;28;20762;-70
2023/01/03 10:19:09;;;;;;;69.00;28.10;;;6.60;99.90;;;;;;5108887;28;20607;-68
2023/01/03 10:22:12;;;;;;;76.77;29.17;;;6.70;99.90;;;;;;5108144;28;20206;-68
2023/01/03 10:24:54;;;;;;;72.10;27.87;;;6.70;99.90;;;;;;5108099;28;20212;-69
2023/01/03 10:27:23;;;;;;;77.40;30.20;;;6.80;99.90;;;;;;5104017;28;20225;-70
2023/01/03 10:29:54;;;;;;;77.00;28.40;;;6.90;99.90;;;;;;5105717;28;20194;-69
2023/01/03 10:32:51;;;;;;;78.90;27.80;;;6.90;99.90;;;;;;5109083;28;20690;-68
2023/01/03 10:35:36;;;;;;;66.93;27.67;;;7.00;99.90;;;;;;5084058;28;20244;-68
2023/01/03 10:38:03;;;;;;;69.97;26.27;;;7.00;99.90;;;;;;5104956;28;20610;-70
2023/01/03 10:40:35;;;;;;;69.87;27.83;;;7.10;99.90;;;;;;5110173;28;20290;-69
2023/01/03 10:43:29;;;;;;;64.50;26.50;;;7.20;99.90;;;;;;5105038;28;20312;-69
2023/01/03 10:46:17;;;;;;;68.20;26.47;;;7.20;99.90;;;;;;5071603;28;20290;-71
2023/01/03 10:48:46;;;;;;;65.27;25.67;;;7.30;99.90;;;;;;5105158;28;20200;-70
2023/01/03 10:51:32;;;;;;;58.67;24.13;;;7.30;99.90;;;;;;5105195;28;20204;-70
2023/01/03 10:54:17;;;;;;;60.47;24.80;;;7.30;99.90;;;;;;5108361;28;20574;-70
2023/01/03 10:56:47;;;;;;;60.43;23.40;;;7.40;99.90;;;;;;5107198;28;20208;-69
2023/01/03 10:59:14;;;;;;;59.53;24.77;;;7.40;99.90;;;;;;5104167;28;20287;-68
2023/01/03 11:02:13;;;;;;;51.63;22.67;;;7.40;99.90;;;;;;5104799;28;20203;-69
2023/01/03 11:04:41;;;;;;;61.93;23.57;;;7.50;99.90;;;;;;5104833;28;20238;-70
2023/01/03 11:07:10;;;;;;;58.77;23.37;;;7.50;99.90;;;;;;5105045;28;20291;-70
2023/01/03 11:09:53;;;;;;;55.83;23.87;;;7.60;99.90;;;;;;5087090;28;20264;-69
2023/01/03 11:12:26;;;;;;;52.70;22.00;;;7.70;99.90;;;;;;5105016;28;20195;-69
2023/01/03 11:14:55;;;;;;;50.87;23.07;;;7.70;99.90;;;;;;5106059;28;20276;-69
2023/01/03 11:17:24;;;;;;;52.83;21.63;;;7.70;99.90;;;;;;5104198;28;20201;-70
2023/01/03 11:19:55;;;;;;;49.07;20.90;;;7.70;99.90;;;;;;5095866;28;20234;-70
2023/01/03 11:22:40;;;;;;;52.50;21.97;;;7.80;99.90;;;;;;5099336;28;20212;-70
2023/01/03 11:25:43;;;;;;;47.73;21.10;;;7.80;99.90;;;;;;5100456;28;20264;-69
2023/01/03 11:28:10;;;;;;;51.50;21.13;;;7.80;99.90;;;;;;5090002;28;20674;-69
2023/01/03 11:30:56;;;;;;;45.00;20.67;;;7.80;99.90;;;;;;5103983;28;20203;-69
2023/01/03 11:33:41;;;;;;;48.03;20.97;;;7.80;99.90;;;;;;5088743;28;20634;-69
2023/01/03 11:36:19;;;;;;;41.17;19.40;;;7.80;99.90;;;;;;5106084;28;20219;-69
2023/01/03 11:39:14;;;;;;;38.83;18.63;;;7.80;99.90;;;;;;5100877;28;20215;-68
2023/01/03 11:42:09;;;;;;;46.93;19.67;;;7.90;99.90;;;;;;5103257;28;20670;-70
2023/01/03 11:44:51;;;;;;;43.90;19.60;;;7.90;99.90;;;;;;5109313;28;20215;-68
2023/01/03 11:47:26;;;;;;;40.63;19.90;;;7.90;99.90;;;;;;5104380;28;20901;-69
2023/01/03 11:50:23;;;;;;;44.77;20.13;;;7.90;99.90;;;;;;5106623;28;20622;-68
2023/01/03 11:53:12;;;;;;;40.40;19.23;;;7.90;99.90;;;;;;5104761;28;20215;-68
2023/01/03 11:56:36;;;;;;;36.90;18.60;;;7.90;99.90;;;;;;5082978;28;20237;-68
2023/01/03 11:59:05;;;;;;;38.37;16.83;;;7.90;99.90;;;;;;5004730;28;20205;-68
2023/01/03 12:01:35;;;;;;;39.77;18.63;;;7.90;99.90;;;;;;4997604;28;20191;-68
2023/01/03 12:04:20;;;;;;;39.93;17.50;;;8.00;99.90;;;;;;5067378;28;20199;-71
2023/01/03 12:07:06;;;;;;;38.00;17.50;;;8.00;99.90;;;;;;5106994;28;20217;-68
2023/01/03 12:09:57;;;;;;;37.10;16.67;;;8.00;99.90;;;;;;5106565;28;20234;-70
2023/01/03 12:12:35;;;;;;;37.20;16.47;;;8.00;99.90;;;;;;5105110;28;20196;-68
2023/01/03 12:15:21;;;;;;;33.53;16.13;;;8.00;99.90;;;;;;5102247;28;20258;-70
2023/01/03 12:17:53;;;;;;;34.90;17.03;;;8.00;99.90;;;;;;5108311;28;20725;-70
2023/01/03 12:20:25;;;;;;;34.10;16.67;;;8.00;99.90;;;;;;5102336;28;20527;-70
2023/01/03 12:22:55;;;;;;;35.20;16.03;;;8.00;99.90;;;;;;5108650;28;20207;-70
2023/01/03 12:25:24;;;;;;;33.50;15.87;;;8.10;99.90;;;;;;5108224;28;20735;-70
2023/01/03 12:28:01;;;;;;;30.23;14.97;;;8.10;99.90;;;;;;5105675;28;20621;-70
2023/01/03 12:30:59;;;;;;;29.73;15.70;;;8.10;99.90;;;;;;5104586;28;20231;-70
2023/01/03 12:33:47;;;;;;;28.07;14.43;;;8.20;99.90;;;;;;5109687;28;20193;-70
2023/01/03 12:36:49;;;;;;;30.83;14.10;;;8.30;99.90;;;;;;5092649;28;20784;-70
2023/01/03 12:39:35;;;;;;;26.67;13.80;;;8.30;99.90;;;;;;5110533;28;20207;-71
2023/01/03 12:42:22;;;;;;;28.77;13.07;;;8.30;99.90;;;;;;5111024;28;20194;-71
2023/01/03 12:45:02;;;;;;;25.40;13.43;;;8.30;99.90;;;;;;5090271;28;20720;-71
2023/01/03 12:48:04;;;;;;;25.40;13.70;;;8.40;99.90;;;;;;5090580;28;20609;-71
2023/01/03 12:50:51;;;;;;;25.00;12.93;;;8.40;99.90;;;;;;5107382;28;20220;-71
2023/01/03 12:53:26;;;;;;;33.20;13.97;;;8.40;99.90;;;;;;5106967;28;20217;-70
2023/01/03 12:56:08;;;;;;;28.67;13.87;;;8.40;99.90;;;;;;5110765;28;20331;-70
2023/01/03 12:59:06;;;;;;;22.13;11.93;;;8.50;99.90;;;;;;5108810;28;20296;-71
2023/01/03 13:01:41;;;;;;;24.70;13.40;;;8.50;99.90;;;;;;5110640;28;20206;-70
2023/01/03 13:04:17;;;;;;;24.40;12.10;;;8.60;99.90;;;;;;5093296;28;20206;-70
2023/01/03 13:07:02;;;;;;;25.30;13.40;;;8.60;99.90;;;;;;5092419;28;20573;-69
2023/01/03 13:09:41;;;;;;;24.33;13.07;;;8.60;99.90;;;;;;5109576;28;20734;-70
2023/01/03 13:12:21;;;;;;;21.20;11.93;;;8.70;99.90;;;;;;5109191;28;20206;-70
2023/01/03 13:14:53;;;;;;;26.10;13.47;;;8.70;99.90;;;;;;5106785;28;20256;-70
2023/01/03 13:17:23;;;;;;;22.07;11.87;;;8.70;99.90;;;;;;5110193;28;20318;-70
2023/01/03 13:19:52;;;;;;;27.53;12.50;;;8.70;99.90;;;;;;5110783;28;20301;-69
2023/01/03 13:22:44;;;;;;;24.77;12.40;;;8.70;99.90;;;;;;5090386;28;20286;-69
2023/01/03 13:25:35;;;;;;;21.60;12.20;;;8.60;99.90;;;;;;5107583;28;20199;-69
2023/01/03 13:28:08;;;;;;;22.13;11.70;;;8.60;99.90;;;;;;5088455;28;20229;-70
2023/01/03 13:30:37;;;;;;;20.30;11.13;;;8.60;99.90;;;;;;5089101;28;20283;-70
2023/01/03 13:33:09;;;;;;;20.97;11.23;;;8.60;99.90;;;;;;5108937;28;20238;-69
2023/01/03 13:35:42;;;;;;;19.57;11.63;;;8.60;99.90;;;;;;5103870;28;20228;-68
2023/01/03 13:38:22;;;;;;;19.30;10.20;;;8.70;99.90;;;;;;5103926;28;20698;-67
2023/01/03 13:40:56;;;;;;;21.53;11.07;;;8.70;99.90;;;;;;5105282;28;20207;-67
2023/01/03 13:43:49;;;;;;;19.10;10.87;;;8.70;99.90;;;;;;5109188;28;20244;-70
2023/01/03 13:46:24;;;;;;;17.80;9.77;;;8.70;99.90;;;;;;5109992;28;20637;-69
2023/01/03 13:48:56;;;;;;;17.00;10.50;;;8.80;99.90;;;;;;5102241;28;20216;-69
2023/01/03 13:51:32;;;;;;;16.53;9.60;;;8.80;99.90;;;;;;5107682;28;20235;-69
2023/01/03 13:54:23;;;;;;;20.70;10.73;;;8.80;99.90;;;;;;5108034;28;20301;-70
2023/01/03 13:56:51;;;;;;;17.10;10.37;;;8.80;99.90;;;;;;5101330;28;20261;-68
2023/01/03 13:59:29;;;;;;;15.60;9.33;;;8.80;99.90;;;;;;5110252;28;20198;-70
2023/01/03 14:02:05;;;;;;;15.93;9.43;;;8.80;99.90;;;;;;5104776;28;20214;-69
2023/01/03 14:04:32;;;;;;;19.77;9.70;;;8.80;99.90;;;;;;5079288;28;20301;-68